sensor_id;sensor_type;location;lat;lon;timestamp;P1;durP1;ratioP1;P2;durP2;ratioP2
5801;SDS011;2927;49.366;8.530;2024-02-26T00:01:48;0.97;;;0.80;;
5801;SDS011;2927;49.366;8.530;2024-02-26T00:04:13;1.17;;;0.60;;
5801;SDS011;2927;49.366;8.530;2024-02-26T00:06:39;0.90;;;0.67;;
5801;SDS011;2927;49.366;8.530;2024-02-26T00:09:09;1.53;;;0.80;;
5801;SDS011;2927;49.366;8.530;2024-02-26T00:11:35;0.80;;;0.80;;
5801;SDS011;2927;49.366;8.530;2024-02-26T00:14:01;2.10;;;0.63;;
5801;SDS011;2927;49.366;8.530;2024-02-26T00:16:27;1.83;;;0.63;;
5801;SDS011;2927;49.366;8.530;2024-02-26T00:18:53;2.70;;;0.90;;
5801;SDS011;2927;49.366;8.530;2024-02-26T00:21:18;0.50;;;0.50;;
5801;SDS011;2927;49.366;8.530;2024-02-26T00:23:44;1.37;;;0.63;;
5801;SDS011;2927;49.366;8.530;2024-02-26T00:26:09;1.07;;;0.60;;
5801;SDS011;2927;49.366;8.530;2024-02-26T00:28:35;0.53;;;0.53;;
5801;SDS011;2927;49.366;8.530;2024-02-26T00:31:01;1.10;;;0.97;;
5801;SDS011;2927;49.366;8.530;2024-02-26T00:33:27;0.90;;;0.77;;
5801;SDS011;2927;49.366;8.530;2024-02-26T00:35:53;1.13;;;1.13;;
5801;SDS011;2927;49.366;8.530;2024-02-26T00:38:19;0.80;;;0.70;;
5801;SDS011;2927;49.366;8.530;2024-02-26T00:40:44;6.00;;;0.70;;
5801;SDS011;2927;49.366;8.530;2024-02-26T00:43:10;2.30;;;0.77;;
5801;SDS011;2927;49.366;8.530;2024-02-26T00:45:35;1.37;;;0.63;;
5801;SDS011;2927;49.366;8.530;2024-02-26T00:48:01;0.67;;;0.67;;
5801;SDS011;2927;49.366;8.530;2024-02-26T00:50:30;2.40;;;0.90;;
5801;SDS011;2927;49.366;8.530;2024-02-26T00:52:58;0.80;;;0.60;;
5801;SDS011;2927;49.366;8.530;2024-02-26T00:55:24;0.80;;;0.70;;
5801;SDS011;2927;49.366;8.530;2024-02-26T00:57:49;0.67;;;0.60;;
5801;SDS011;2927;49.366;8.530;2024-02-26T01:00:15;0.97;;;0.80;;
5801;SDS011;2927;49.366;8.530;2024-02-26T01:02:41;0.53;;;0.50;;
5801;SDS011;2927;49.366;8.530;2024-02-26T01:05:07;0.80;;;0.70;;
5801;SDS011;2927;49.366;8.530;2024-02-26T01:07:34;0.93;;;0.93;;
5801;SDS011;2927;49.366;8.530;2024-02-26T01:10:01;2.30;;;1.10;;
5801;SDS011;2927;49.366;8.530;2024-02-26T01:12:28;1.03;;;1.00;;
5801;SDS011;2927;49.366;8.530;2024-02-26T01:14:53;0.80;;;0.80;;
5801;SDS011;2927;49.366;8.530;2024-02-26T01:17:19;2.23;;;0.80;;
5801;SDS011;2927;49.366;8.530;2024-02-26T01:19:44;1.47;;;1.07;;
5801;SDS011;2927;49.366;8.530;2024-02-26T01:22:10;1.07;;;0.83;;
5801;SDS011;2927;49.366;8.530;2024-02-26T01:24:41;1.30;;;0.80;;
5801;SDS011;2927;49.366;8.530;2024-02-26T01:27:07;0.60;;;0.60;;
5801;SDS011;2927;49.366;8.530;2024-02-26T01:29:34;0.90;;;0.90;;
5801;SDS011;2927;49.366;8.530;2024-02-26T01:31:59;0.63;;;0.50;;
5801;SDS011;2927;49.366;8.530;2024-02-26T01:34:25;1.90;;;1.23;;
5801;SDS011;2927;49.366;8.530;2024-02-26T01:36:50;1.83;;;1.30;;
5801;SDS011;2927;49.366;8.530;2024-02-26T01:39:16;2.43;;;1.00;;
5801;SDS011;2927;49.366;8.530;2024-02-26T01:41:41;1.73;;;0.80;;
5801;SDS011;2927;49.366;8.530;2024-02-26T01:44:07;0.70;;;0.70;;
5801;SDS011;2927;49.366;8.530;2024-02-26T01:46:33;0.97;;;0.77;;
5801;SDS011;2927;49.366;8.530;2024-02-26T01:49:01;2.57;;;0.70;;
5801;SDS011;2927;49.366;8.530;2024-02-26T01:51:27;0.90;;;0.90;;
5801;SDS011;2927;49.366;8.530;2024-02-26T01:53:54;3.70;;;0.87;;
5801;SDS011;2927;49.366;8.530;2024-02-26T01:56:20;1.27;;;0.97;;
5801;SDS011;2927;49.366;8.530;2024-02-26T01:58:47;2.97;;;1.00;;
5801;SDS011;2927;49.366;8.530;2024-02-26T02:01:13;2.03;;;0.70;;
5801;SDS011;2927;49.366;8.530;2024-02-26T02:03:44;0.63;;;0.63;;
5801;SDS011;2927;49.366;8.530;2024-02-26T02:06:10;1.00;;;1.00;;
5801;SDS011;2927;49.366;8.530;2024-02-26T02:08:37;0.90;;;0.90;;
5801;SDS011;2927;49.366;8.530;2024-02-26T02:11:03;1.23;;;1.07;;
5801;SDS011;2927;49.366;8.530;2024-02-26T02:13:29;0.80;;;0.80;;
5801;SDS011;2927;49.366;8.530;2024-02-26T02:15:55;1.23;;;0.80;;
5801;SDS011;2927;49.366;8.530;2024-02-26T02:18:20;0.90;;;0.60;;
5801;SDS011;2927;49.366;8.530;2024-02-26T02:20:46;1.23;;;0.73;;
5801;SDS011;2927;49.366;8.530;2024-02-26T02:23:11;1.23;;;0.83;;
5801;SDS011;2927;49.366;8.530;2024-02-26T02:25:37;1.57;;;1.17;;
5801;SDS011;2927;49.366;8.530;2024-02-26T02:28:02;1.00;;;1.00;;
5801;SDS011;2927;49.366;8.530;2024-02-26T02:30:29;2.40;;;1.10;;
5801;SDS011;2927;49.366;8.530;2024-02-26T02:32:57;1.53;;;0.90;;
5801;SDS011;2927;49.366;8.530;2024-02-26T02:35:23;1.13;;;0.87;;
5801;SDS011;2927;49.366;8.530;2024-02-26T02:37:50;0.80;;;0.60;;
5801;SDS011;2927;49.366;8.530;2024-02-26T02:40:17;1.23;;;0.87;;
5801;SDS011;2927;49.366;8.530;2024-02-26T02:42:42;1.17;;;1.07;;
5801;SDS011;2927;49.366;8.530;2024-02-26T02:45:08;1.03;;;0.67;;
5801;SDS011;2927;49.366;8.530;2024-02-26T02:47:37;1.40;;;1.17;;
5801;SDS011;2927;49.366;8.530;2024-02-26T02:50:03;2.50;;;0.80;;
5801;SDS011;2927;49.366;8.530;2024-02-26T02:52:28;0.60;;;0.60;;
5801;SDS011;2927;49.366;8.530;2024-02-26T02:54:54;0.63;;;0.63;;
5801;SDS011;2927;49.366;8.530;2024-02-26T02:57:20;1.47;;;0.70;;
5801;SDS011;2927;49.366;8.530;2024-02-26T02:59:46;1.83;;;0.70;;
5801;SDS011;2927;49.366;8.530;2024-02-26T03:02:11;0.73;;;0.73;;
5801;SDS011;2927;49.366;8.530;2024-02-26T03:04:37;0.70;;;0.60;;
5801;SDS011;2927;49.366;8.530;2024-02-26T03:07:02;0.83;;;0.50;;
5801;SDS011;2927;49.366;8.530;2024-02-26T03:09:28;3.00;;;0.60;;
5801;SDS011;2927;49.366;8.530;2024-02-26T03:11:53;0.50;;;0.30;;
5801;SDS011;2927;49.366;8.530;2024-02-26T03:14:19;0.80;;;0.40;;
5801;SDS011;2927;49.366;8.530;2024-02-26T03:16:44;0.40;;;0.40;;
5801;SDS011;2927;49.366;8.530;2024-02-26T03:19:10;0.30;;;0.30;;
5801;SDS011;2927;49.366;8.530;2024-02-26T03:21:36;0.40;;;0.30;;
5801;SDS011;2927;49.366;8.530;2024-02-26T03:24:01;0.40;;;0.30;;
5801;SDS011;2927;49.366;8.530;2024-02-26T03:26:27;0.77;;;0.30;;
5801;SDS011;2927;49.366;8.530;2024-02-26T03:28:52;0.30;;;0.30;;
5801;SDS011;2927;49.366;8.530;2024-02-26T03:31:18;0.50;;;0.50;;
5801;SDS011;2927;49.366;8.530;2024-02-26T03:33:44;0.97;;;0.30;;
5801;SDS011;2927;49.366;8.530;2024-02-26T03:36:09;0.70;;;0.30;;
5801;SDS011;2927;49.366;8.530;2024-02-26T03:38:35;0.30;;;0.30;;
5801;SDS011;2927;49.366;8.530;2024-02-26T03:41:00;0.30;;;0.30;;
5801;SDS011;2927;49.366;8.530;2024-02-26T03:43:26;0.30;;;0.30;;
5801;SDS011;2927;49.366;8.530;2024-02-26T03:45:51;0.30;;;0.30;;
5801;SDS011;2927;49.366;8.530;2024-02-26T03:48:17;0.40;;;0.30;;
5801;SDS011;2927;49.366;8.530;2024-02-26T03:50:43;0.40;;;0.40;;
5801;SDS011;2927;49.366;8.530;2024-02-26T03:53:08;0.43;;;0.43;;
5801;SDS011;2927;49.366;8.530;2024-02-26T03:55:37;0.40;;;0.40;;
5801;SDS011;2927;49.366;8.530;2024-02-26T03:58:03;0.33;;;0.33;;
5801;SDS011;2927;49.366;8.530;2024-02-26T04:00:28;0.40;;;0.40;;
5801;SDS011;2927;49.366;8.530;2024-02-26T04:02:55;1.77;;;0.40;;
5801;SDS011;2927;49.366;8.530;2024-02-26T04:05:20;0.57;;;0.57;;
5801;SDS011;2927;49.366;8.530;2024-02-26T04:07:46;0.40;;;0.40;;
5801;SDS011;2927;49.366;8.530;2024-02-26T04:10:12;0.30;;;0.30;;
5801;SDS011;2927;49.366;8.530;2024-02-26T04:12:38;0.30;;;0.30;;
5801;SDS011;2927;49.366;8.530;2024-02-26T04:15:06;0.73;;;0.30;;
5801;SDS011;2927;49.366;8.530;2024-02-26T04:17:32;1.23;;;0.57;;
5801;SDS011;2927;49.366;8.530;2024-02-26T04:19:58;0.83;;;0.43;;
5801;SDS011;2927;49.366;8.530;2024-02-26T04:22:23;0.60;;;0.40;;
5801;SDS011;2927;49.366;8.530;2024-02-26T04:24:49;0.63;;;0.50;;
5801;SDS011;2927;49.366;8.530;2024-02-26T04:27:14;0.53;;;0.53;;
5801;SDS011;2927;49.366;8.530;2024-02-26T04:29:40;1.67;;;0.83;;
5801;SDS011;2927;49.366;8.530;2024-02-26T04:32:06;0.50;;;0.50;;
5801;SDS011;2927;49.366;8.530;2024-02-26T04:34:31;1.23;;;0.40;;
5801;SDS011;2927;49.366;8.530;2024-02-26T04:36:57;1.27;;;0.80;;
5801;SDS011;2927;49.366;8.530;2024-02-26T04:39:22;0.37;;;0.37;;
5801;SDS011;2927;49.366;8.530;2024-02-26T04:41:48;0.73;;;0.50;;
5801;SDS011;2927;49.366;8.530;2024-02-26T04:44:13;0.50;;;0.50;;
5801;SDS011;2927;49.366;8.530;2024-02-26T04:46:39;0.80;;;0.40;;
5801;SDS011;2927;49.366;8.530;2024-02-26T04:49:04;0.53;;;0.50;;
5801;SDS011;2927;49.366;8.530;2024-02-26T04:51:30;0.50;;;0.50;;
5801;SDS011;2927;49.366;8.530;2024-02-26T04:53:56;1.13;;;0.50;;
5801;SDS011;2927;49.366;8.530;2024-02-26T04:56:21;0.60;;;0.60;;
5801;SDS011;2927;49.366;8.530;2024-02-26T04:58:47;0.50;;;0.50;;
5801;SDS011;2927;49.366;8.530;2024-02-26T05:01:13;0.67;;;0.50;;
5801;SDS011;2927;49.366;8.530;2024-02-26T05:03:40;0.40;;;0.40;;
5801;SDS011;2927;49.366;8.530;2024-02-26T05:06:06;1.07;;;0.50;;
5801;SDS011;2927;49.366;8.530;2024-02-26T05:08:32;0.50;;;0.50;;
5801;SDS011;2927;49.366;8.530;2024-02-26T05:10:58;0.77;;;0.40;;
5801;SDS011;2927;49.366;8.530;2024-02-26T05:13:25;2.27;;;0.60;;
5801;SDS011;2927;49.366;8.530;2024-02-26T05:15:50;0.57;;;0.47;;
5801;SDS011;2927;49.366;8.530;2024-02-26T05:18:17;2.57;;;0.40;;
5801;SDS011;2927;49.366;8.530;2024-02-26T05:20:42;0.60;;;0.60;;
5801;SDS011;2927;49.366;8.530;2024-02-26T05:23:08;0.37;;;0.37;;
5801;SDS011;2927;49.366;8.530;2024-02-26T05:25:34;0.70;;;0.50;;
5801;SDS011;2927;49.366;8.530;2024-02-26T05:28:00;0.77;;;0.40;;
5801;SDS011;2927;49.366;8.530;2024-02-26T05:30:25;0.33;;;0.30;;
5801;SDS011;2927;49.366;8.530;2024-02-26T05:32:54;0.50;;;0.50;;
5801;SDS011;2927;49.366;8.530;2024-02-26T05:35:19;0.80;;;0.57;;
5801;SDS011;2927;49.366;8.530;2024-02-26T05:37:45;0.50;;;0.40;;
5801;SDS011;2927;49.366;8.530;2024-02-26T05:40:11;0.60;;;0.40;;
5801;SDS011;2927;49.366;8.530;2024-02-26T05:42:37;0.53;;;0.43;;
5801;SDS011;2927;49.366;8.530;2024-02-26T05:45:02;1.13;;;0.60;;
5801;SDS011;2927;49.366;8.530;2024-02-26T05:47:34;0.53;;;0.53;;
5801;SDS011;2927;49.366;8.530;2024-02-26T05:50:00;1.70;;;0.80;;
5801;SDS011;2927;49.366;8.530;2024-02-26T05:52:26;0.40;;;0.40;;
5801;SDS011;2927;49.366;8.530;2024-02-26T05:54:56;1.30;;;0.47;;
5801;SDS011;2927;49.366;8.530;2024-02-26T05:57:22;0.53;;;0.40;;
5801;SDS011;2927;49.366;8.530;2024-02-26T05:59:47;0.50;;;0.50;;
5801;SDS011;2927;49.366;8.530;2024-02-26T06:02:13;0.50;;;0.50;;
5801;SDS011;2927;49.366;8.530;2024-02-26T06:04:38;0.60;;;0.60;;
5801;SDS011;2927;49.366;8.530;2024-02-26T06:07:04;0.70;;;0.70;;
5801;SDS011;2927;49.366;8.530;2024-02-26T06:09:30;0.60;;;0.60;;
5801;SDS011;2927;49.366;8.530;2024-02-26T06:11:55;0.50;;;0.50;;
5801;SDS011;2927;49.366;8.530;2024-02-26T06:14:21;0.83;;;0.70;;
5801;SDS011;2927;49.366;8.530;2024-02-26T06:16:46;0.80;;;0.70;;
5801;SDS011;2927;49.366;8.530;2024-02-26T06:19:13;0.87;;;0.87;;
5801;SDS011;2927;49.366;8.530;2024-02-26T06:21:38;0.67;;;0.60;;
5801;SDS011;2927;49.366;8.530;2024-02-26T06:24:04;0.83;;;0.60;;
5801;SDS011;2927;49.366;8.530;2024-02-26T06:26:29;2.83;;;0.97;;
5801;SDS011;2927;49.366;8.530;2024-02-26T06:28:55;1.43;;;0.90;;
5801;SDS011;2927;49.366;8.530;2024-02-26T06:31:21;3.13;;;1.27;;
5801;SDS011;2927;49.366;8.530;2024-02-26T06:33:48;1.60;;;1.03;;
5801;SDS011;2927;49.366;8.530;2024-02-26T06:36:15;1.40;;;1.30;;
5801;SDS011;2927;49.366;8.530;2024-02-26T06:38:40;6.00;;;1.37;;
5801;SDS011;2927;49.366;8.530;2024-02-26T06:41:06;0.97;;;0.83;;
5801;SDS011;2927;49.366;8.530;2024-02-26T06:43:32;3.73;;;1.20;;
5801;SDS011;2927;49.366;8.530;2024-02-26T06:45:57;2.83;;;1.50;;
5801;SDS011;2927;49.366;8.530;2024-02-26T06:48:23;3.43;;;1.47;;
5801;SDS011;2927;49.366;8.530;2024-02-26T06:50:49;2.73;;;1.43;;
5801;SDS011;2927;49.366;8.530;2024-02-26T06:53:15;1.30;;;1.30;;
5801;SDS011;2927;49.366;8.530;2024-02-26T06:55:41;6.90;;;1.77;;
5801;SDS011;2927;49.366;8.530;2024-02-26T06:58:08;2.73;;;1.77;;
5801;SDS011;2927;49.366;8.530;2024-02-26T07:00:34;1.70;;;1.60;;
5801;SDS011;2927;49.366;8.530;2024-02-26T07:03:00;3.70;;;1.57;;
5801;SDS011;2927;49.366;8.530;2024-02-26T07:05:26;1.60;;;1.20;;
5801;SDS011;2927;49.366;8.530;2024-02-26T07:07:52;2.40;;;1.47;;
5801;SDS011;2927;49.366;8.530;2024-02-26T07:10:18;1.27;;;1.17;;
5801;SDS011;2927;49.366;8.530;2024-02-26T07:12:44;3.03;;;1.60;;
5801;SDS011;2927;49.366;8.530;2024-02-26T07:15:09;4.80;;;1.70;;
5801;SDS011;2927;49.366;8.530;2024-02-26T07:17:35;3.50;;;2.30;;
5801;SDS011;2927;49.366;8.530;2024-02-26T07:20:01;2.20;;;1.50;;
5801;SDS011;2927;49.366;8.530;2024-02-26T07:22:29;1.77;;;1.60;;
5801;SDS011;2927;49.366;8.530;2024-02-26T07:24:55;3.10;;;1.80;;
5801;SDS011;2927;49.366;8.530;2024-02-26T07:27:20;7.60;;;1.77;;
5801;SDS011;2927;49.366;8.530;2024-02-26T07:29:46;4.60;;;1.97;;
5801;SDS011;2927;49.366;8.530;2024-02-26T07:32:12;2.83;;;1.50;;
5801;SDS011;2927;49.366;8.530;2024-02-26T07:34:37;2.30;;;1.57;;
5801;SDS011;2927;49.366;8.530;2024-02-26T07:37:06;2.20;;;1.53;;
5801;SDS011;2927;49.366;8.530;2024-02-26T07:39:32;2.80;;;1.77;;
5801;SDS011;2927;49.366;8.530;2024-02-26T07:41:58;1.70;;;1.37;;
5801;SDS011;2927;49.366;8.530;2024-02-26T07:44:23;1.20;;;1.20;;
5801;SDS011;2927;49.366;8.530;2024-02-26T07:46:49;2.73;;;1.20;;
5801;SDS011;2927;49.366;8.530;2024-02-26T07:49:14;1.57;;;1.47;;
5801;SDS011;2927;49.366;8.530;2024-02-26T07:51:40;1.67;;;1.53;;
5801;SDS011;2927;49.366;8.530;2024-02-26T07:54:05;3.43;;;1.60;;
5801;SDS011;2927;49.366;8.530;2024-02-26T07:56:31;8.33;;;1.53;;
5801;SDS011;2927;49.366;8.530;2024-02-26T07:58:57;1.27;;;1.17;;
5801;SDS011;2927;49.366;8.530;2024-02-26T08:01:22;1.27;;;1.27;;
5801;SDS011;2927;49.366;8.530;2024-02-26T08:03:48;1.77;;;1.10;;
5801;SDS011;2927;49.366;8.530;2024-02-26T08:06:13;2.10;;;1.17;;
5801;SDS011;2927;49.366;8.530;2024-02-26T08:08:39;2.20;;;1.17;;
5801;SDS011;2927;49.366;8.530;2024-02-26T08:11:04;1.10;;;1.10;;
5801;SDS011;2927;49.366;8.530;2024-02-26T08:13:30;2.17;;;1.40;;
5801;SDS011;2927;49.366;8.530;2024-02-26T08:15:56;3.43;;;1.40;;
5801;SDS011;2927;49.366;8.530;2024-02-26T08:18:21;1.37;;;1.27;;
5801;SDS011;2927;49.366;8.530;2024-02-26T08:20:47;1.13;;;1.00;;
5801;SDS011;2927;49.366;8.530;2024-02-26T08:23:13;2.03;;;1.60;;
5801;SDS011;2927;49.366;8.530;2024-02-26T08:25:39;3.77;;;1.57;;
5801;SDS011;2927;49.366;8.530;2024-02-26T08:28:05;1.20;;;1.00;;
5801;SDS011;2927;49.366;8.530;2024-02-26T08:30:30;2.20;;;1.40;;
5801;SDS011;2927;49.366;8.530;2024-02-26T08:32:56;1.17;;;0.97;;
5801;SDS011;2927;49.366;8.530;2024-02-26T08:35:21;0.97;;;0.90;;
5801;SDS011;2927;49.366;8.530;2024-02-26T08:37:47;1.90;;;0.90;;
5801;SDS011;2927;49.366;8.530;2024-02-26T08:40:13;1.50;;;1.40;;
5801;SDS011;2927;49.366;8.530;2024-02-26T08:42:39;1.63;;;0.87;;
5801;SDS011;2927;49.366;8.530;2024-02-26T08:45:05;1.70;;;0.70;;
5801;SDS011;2927;49.366;8.530;2024-02-26T08:47:32;2.97;;;1.20;;
5801;SDS011;2927;49.366;8.530;2024-02-26T08:49:58;1.37;;;1.03;;
5801;SDS011;2927;49.366;8.530;2024-02-26T08:52:23;2.30;;;0.83;;
5801;SDS011;2927;49.366;8.530;2024-02-26T08:54:49;1.53;;;0.97;;
5801;SDS011;2927;49.366;8.530;2024-02-26T08:57:15;5.50;;;1.07;;
5801;SDS011;2927;49.366;8.530;2024-02-26T08:59:40;3.93;;;0.80;;
5801;SDS011;2927;49.366;8.530;2024-02-26T09:02:07;0.93;;;0.93;;
5801;SDS011;2927;49.366;8.530;2024-02-26T09:04:34;1.37;;;1.20;;
5801;SDS011;2927;49.366;8.530;2024-02-26T09:07:00;1.00;;;1.00;;
5801;SDS011;2927;49.366;8.530;2024-02-26T09:09:27;1.13;;;0.90;;
5801;SDS011;2927;49.366;8.530;2024-02-26T09:11:52;0.90;;;0.70;;
5801;SDS011;2927;49.366;8.530;2024-02-26T09:14:19;1.30;;;1.10;;
5801;SDS011;2927;49.366;8.530;2024-02-26T09:16:45;2.40;;;1.20;;
5801;SDS011;2927;49.366;8.530;2024-02-26T09:19:13;2.13;;;1.20;;
5801;SDS011;2927;49.366;8.530;2024-02-26T09:21:42;4.13;;;0.90;;
5801;SDS011;2927;49.366;8.530;2024-02-26T09:24:13;0.70;;;0.70;;
5801;SDS011;2927;49.366;8.530;2024-02-26T09:26:39;1.73;;;0.93;;
5801;SDS011;2927;49.366;8.530;2024-02-26T09:29:05;0.60;;;0.60;;
5801;SDS011;2927;49.366;8.530;2024-02-26T09:31:31;1.10;;;0.70;;
5801;SDS011;2927;49.366;8.530;2024-02-26T09:33:56;1.80;;;1.03;;
5801;SDS011;2927;49.366;8.530;2024-02-26T09:36:22;0.77;;;0.77;;
5801;SDS011;2927;49.366;8.530;2024-02-26T09:38:48;2.13;;;0.90;;
5801;SDS011;2927;49.366;8.530;2024-02-26T09:41:16;1.50;;;1.00;;
5801;SDS011;2927;49.366;8.530;2024-02-26T09:43:43;0.97;;;0.90;;
5801;SDS011;2927;49.366;8.530;2024-02-26T09:46:11;0.73;;;0.73;;
5801;SDS011;2927;49.366;8.530;2024-02-26T09:48:37;0.80;;;0.80;;
5801;SDS011;2927;49.366;8.530;2024-02-26T09:51:03;7.10;;;1.10;;
5801;SDS011;2927;49.366;8.530;2024-02-26T09:53:29;0.70;;;0.70;;
5801;SDS011;2927;49.366;8.530;2024-02-26T09:55:56;0.73;;;0.70;;
5801;SDS011;2927;49.366;8.530;2024-02-26T09:58:22;1.47;;;0.87;;
5801;SDS011;2927;49.366;8.530;2024-02-26T10:00:51;1.20;;;1.00;;
5801;SDS011;2927;49.366;8.530;2024-02-26T10:03:21;1.40;;;1.13;;
5801;SDS011;2927;49.366;8.530;2024-02-26T10:06:03;0.70;;;0.70;;
5801;SDS011;2927;49.366;8.530;2024-02-26T10:08:30;1.73;;;1.13;;
5801;SDS011;2927;49.366;8.530;2024-02-26T10:10:57;1.00;;;0.90;;
5801;SDS011;2927;49.366;8.530;2024-02-26T10:13:22;1.20;;;0.70;;
5801;SDS011;2927;49.366;8.530;2024-02-26T10:15:48;0.70;;;0.63;;
5801;SDS011;2927;49.366;8.530;2024-02-26T10:18:14;1.33;;;1.23;;
5801;SDS011;2927;49.366;8.530;2024-02-26T10:20:40;1.93;;;1.40;;
5801;SDS011;2927;49.366;8.530;2024-02-26T10:23:05;0.77;;;0.77;;
5801;SDS011;2927;49.366;8.530;2024-02-26T10:25:31;1.20;;;1.00;;
5801;SDS011;2927;49.366;8.530;2024-02-26T10:28:00;0.70;;;0.70;;
5801;SDS011;2927;49.366;8.530;2024-02-26T10:30:29;0.93;;;0.70;;
5801;SDS011;2927;49.366;8.530;2024-02-26T10:32:55;0.60;;;0.60;;
5801;SDS011;2927;49.366;8.530;2024-02-26T10:35:21;0.80;;;0.80;;
5801;SDS011;2927;49.366;8.530;2024-02-26T10:37:47;0.97;;;0.80;;
5801;SDS011;2927;49.366;8.530;2024-02-26T10:40:14;1.03;;;0.83;;
5801;SDS011;2927;49.366;8.530;2024-02-26T10:42:40;0.93;;;0.70;;
5801;SDS011;2927;49.366;8.530;2024-02-26T10:45:06;2.20;;;0.97;;
5801;SDS011;2927;49.366;8.530;2024-02-26T10:47:34;1.23;;;1.10;;
5801;SDS011;2927;49.366;8.530;2024-02-26T10:50:03;1.33;;;1.00;;
5801;SDS011;2927;49.366;8.530;2024-02-26T10:52:33;1.23;;;1.07;;
5801;SDS011;2927;49.366;8.530;2024-02-26T10:55:01;0.60;;;0.60;;
5801;SDS011;2927;49.366;8.530;2024-02-26T10:57:28;0.70;;;0.60;;
5801;SDS011;2927;49.366;8.530;2024-02-26T10:59:58;0.40;;;0.40;;
5801;SDS011;2927;49.366;8.530;2024-02-26T11:02:26;1.60;;;0.93;;
5801;SDS011;2927;49.366;8.530;2024-02-26T11:04:52;1.17;;;0.70;;
5801;SDS011;2927;49.366;8.530;2024-02-26T11:07:18;0.60;;;0.60;;
5801;SDS011;2927;49.366;8.530;2024-02-26T11:09:45;0.57;;;0.57;;
5801;SDS011;2927;49.366;8.530;2024-02-26T11:12:16;0.40;;;0.40;;
5801;SDS011;2927;49.366;8.530;2024-02-26T11:14:45;2.50;;;0.60;;
5801;SDS011;2927;49.366;8.530;2024-02-26T11:17:12;0.40;;;0.40;;
5801;SDS011;2927;49.366;8.530;2024-02-26T11:19:40;0.60;;;0.60;;
5801;SDS011;2927;49.366;8.530;2024-02-26T11:22:07;0.70;;;0.70;;
5801;SDS011;2927;49.366;8.530;2024-02-26T11:24:33;3.67;;;0.73;;
5801;SDS011;2927;49.366;8.530;2024-02-26T11:27:00;0.60;;;0.60;;
5801;SDS011;2927;49.366;8.530;2024-02-26T11:29:32;0.60;;;0.60;;
5801;SDS011;2927;49.366;8.530;2024-02-26T11:32:02;0.80;;;0.60;;
5801;SDS011;2927;49.366;8.530;2024-02-26T11:34:28;4.37;;;0.63;;
5801;SDS011;2927;49.366;8.530;2024-02-26T11:36:54;2.83;;;0.60;;
5801;SDS011;2927;49.366;8.530;2024-02-26T11:39:21;1.07;;;0.97;;
5801;SDS011;2927;49.366;8.530;2024-02-26T11:41:47;0.70;;;0.50;;
5801;SDS011;2927;49.366;8.530;2024-02-26T11:44:13;1.03;;;0.70;;
5801;SDS011;2927;49.366;8.530;2024-02-26T11:46:41;0.80;;;0.80;;
5801;SDS011;2927;49.366;8.530;2024-02-26T11:51:52;0.70;;;0.50;;
5801;SDS011;2927;49.366;8.530;2024-02-26T12:02:49;2.10;;;0.60;;
5801;SDS011;2927;49.366;8.530;2024-02-26T12:05:23;0.80;;;0.60;;
5801;SDS011;2927;49.366;8.530;2024-02-26T12:07:52;1.03;;;0.60;;
5801;SDS011;2927;49.366;8.530;2024-02-26T12:12:44;1.30;;;1.00;;
5801;SDS011;2927;49.366;8.530;2024-02-26T12:15:10;1.77;;;1.20;;
5801;SDS011;2927;49.366;8.530;2024-02-26T12:17:36;1.43;;;1.10;;
5801;SDS011;2927;49.366;8.530;2024-02-26T12:20:11;0.80;;;0.80;;
5801;SDS011;2927;49.366;8.530;2024-02-26T12:22:41;1.47;;;0.50;;
5801;SDS011;2927;49.366;8.530;2024-02-26T12:25:11;0.73;;;0.73;;
5801;SDS011;2927;49.366;8.530;2024-02-26T12:27:38;1.40;;;0.83;;
5801;SDS011;2927;49.366;8.530;2024-02-26T12:30:03;1.10;;;0.50;;
5801;SDS011;2927;49.366;8.530;2024-02-26T12:32:32;0.70;;;0.70;;
5801;SDS011;2927;49.366;8.530;2024-02-26T12:34:58;0.60;;;0.60;;
5801;SDS011;2927;49.366;8.530;2024-02-26T12:37:25;0.90;;;0.50;;
5801;SDS011;2927;49.366;8.530;2024-02-26T12:39:52;0.50;;;0.50;;
5801;SDS011;2927;49.366;8.530;2024-02-26T12:42:18;1.03;;;0.60;;
5801;SDS011;2927;49.366;8.530;2024-02-26T12:44:45;0.77;;;0.77;;
5801;SDS011;2927;49.366;8.530;2024-02-26T12:47:11;0.53;;;0.53;;
5801;SDS011;2927;49.366;8.530;2024-02-26T12:49:42;0.50;;;0.50;;
5801;SDS011;2927;49.366;8.530;2024-02-26T12:52:08;0.67;;;0.60;;
5801;SDS011;2927;49.366;8.530;2024-02-26T12:54:35;0.60;;;0.60;;
5801;SDS011;2927;49.366;8.530;2024-02-26T12:57:04;1.00;;;0.67;;
5801;SDS011;2927;49.366;8.530;2024-02-26T12:59:31;2.63;;;0.50;;
5801;SDS011;2927;49.366;8.530;2024-02-26T13:01:59;0.40;;;0.40;;
5801;SDS011;2927;49.366;8.530;2024-02-26T13:04:25;1.03;;;0.47;;
5801;SDS011;2927;49.366;8.530;2024-02-26T13:06:52;0.50;;;0.40;;
5801;SDS011;2927;49.366;8.530;2024-02-26T13:09:18;0.40;;;0.30;;
5801;SDS011;2927;49.366;8.530;2024-02-26T13:11:44;0.50;;;0.30;;
5801;SDS011;2927;49.366;8.530;2024-02-26T13:14:22;0.40;;;0.40;;
5801;SDS011;2927;49.366;8.530;2024-02-26T13:16:54;0.43;;;0.40;;
5801;SDS011;2927;49.366;8.530;2024-02-26T13:19:21;1.17;;;0.57;;
5801;SDS011;2927;49.366;8.530;2024-02-26T13:21:47;0.43;;;0.43;;
5801;SDS011;2927;49.366;8.530;2024-02-26T13:24:13;0.57;;;0.57;;
5801;SDS011;2927;49.366;8.530;2024-02-26T13:26:38;2.30;;;0.50;;
5801;SDS011;2927;49.366;8.530;2024-02-26T13:29:04;1.33;;;0.90;;
5801;SDS011;2927;49.366;8.530;2024-02-26T13:31:30;0.40;;;0.40;;
5801;SDS011;2927;49.366;8.530;2024-02-26T13:33:56;0.57;;;0.50;;
5801;SDS011;2927;49.366;8.530;2024-02-26T13:36:24;0.40;;;0.40;;
5801;SDS011;2927;49.366;8.530;2024-02-26T13:38:51;0.47;;;0.40;;
5801;SDS011;2927;49.366;8.530;2024-02-26T13:41:20;0.40;;;0.30;;
5801;SDS011;2927;49.366;8.530;2024-02-26T13:43:50;0.30;;;0.20;;
5801;SDS011;2927;49.366;8.530;2024-02-26T13:46:15;0.53;;;0.40;;
5801;SDS011;2927;49.366;8.530;2024-02-26T13:48:42;0.30;;;0.30;;
5801;SDS011;2927;49.366;8.530;2024-02-26T13:51:07;0.83;;;0.50;;
5801;SDS011;2927;49.366;8.530;2024-02-26T13:53:33;1.33;;;0.50;;
5801;SDS011;2927;49.366;8.530;2024-02-26T13:55:58;0.30;;;0.30;;
5801;SDS011;2927;49.366;8.530;2024-02-26T13:58:26;0.40;;;0.40;;
5801;SDS011;2927;49.366;8.530;2024-02-26T14:00:55;0.53;;;0.40;;
5801;SDS011;2927;49.366;8.530;2024-02-26T14:03:21;0.30;;;0.30;;
5801;SDS011;2927;49.366;8.530;2024-02-26T14:05:47;0.40;;;0.30;;
5801;SDS011;2927;49.366;8.530;2024-02-26T14:08:12;0.30;;;0.30;;
5801;SDS011;2927;49.366;8.530;2024-02-26T14:10:38;0.70;;;0.40;;
5801;SDS011;2927;49.366;8.530;2024-02-26T14:13:04;0.40;;;0.30;;
5801;SDS011;2927;49.366;8.530;2024-02-26T14:15:29;0.40;;;0.30;;
5801;SDS011;2927;49.366;8.530;2024-02-26T14:17:55;0.70;;;0.30;;
5801;SDS011;2927;49.366;8.530;2024-02-26T14:20:22;0.80;;;0.33;;
5801;SDS011;2927;49.366;8.530;2024-02-26T14:22:49;0.30;;;0.30;;
5801;SDS011;2927;49.366;8.530;2024-02-26T14:25:17;0.40;;;0.40;;
5801;SDS011;2927;49.366;8.530;2024-02-26T14:27:42;1.07;;;0.90;;
5801;SDS011;2927;49.366;8.530;2024-02-26T14:30:08;0.63;;;0.60;;
5801;SDS011;2927;49.366;8.530;2024-02-26T14:32:34;1.10;;;0.57;;
5801;SDS011;2927;49.366;8.530;2024-02-26T14:35:01;0.40;;;0.40;;
5801;SDS011;2927;49.366;8.530;2024-02-26T14:37:28;0.63;;;0.50;;
5801;SDS011;2927;49.366;8.530;2024-02-26T14:39:53;0.40;;;0.40;;
5801;SDS011;2927;49.366;8.530;2024-02-26T14:42:19;0.50;;;0.30;;
5801;SDS011;2927;49.366;8.530;2024-02-26T14:44:44;0.40;;;0.40;;
5801;SDS011;2927;49.366;8.530;2024-02-26T14:47:12;0.50;;;0.40;;
5801;SDS011;2927;49.366;8.530;2024-02-26T14:49:38;0.43;;;0.40;;
5801;SDS011;2927;49.366;8.530;2024-02-26T14:52:04;0.50;;;0.50;;
5801;SDS011;2927;49.366;8.530;2024-02-26T14:54:29;0.50;;;0.30;;
5801;SDS011;2927;49.366;8.530;2024-02-26T14:57:02;0.60;;;0.57;;
5801;SDS011;2927;49.366;8.530;2024-02-26T14:59:28;0.40;;;0.40;;
5801;SDS011;2927;49.366;8.530;2024-02-26T15:01:55;0.30;;;0.30;;
5801;SDS011;2927;49.366;8.530;2024-02-26T15:04:21;0.30;;;0.30;;
5801;SDS011;2927;49.366;8.530;2024-02-26T15:06:47;0.40;;;0.40;;
5801;SDS011;2927;49.366;8.530;2024-02-26T15:09:13;0.53;;;0.50;;
5801;SDS011;2927;49.366;8.530;2024-02-26T15:11:38;4.07;;;0.73;;
5801;SDS011;2927;49.366;8.530;2024-02-26T15:14:04;0.87;;;0.47;;
5801;SDS011;2927;49.366;8.530;2024-02-26T15:16:30;0.90;;;0.73;;
5801;SDS011;2927;49.366;8.530;2024-02-26T15:18:56;1.17;;;0.80;;
5801;SDS011;2927;49.366;8.530;2024-02-26T15:21:21;1.50;;;0.50;;
5801;SDS011;2927;49.366;8.530;2024-02-26T15:23:47;0.50;;;0.50;;